• Bienvenue sur Pilotes Québec!
  • Bienvenue sur le site de Pilotes Québec, la nouvelle communauté des pilotes et aviateurs du Québec.
  • L'image de cette semaine nous vient de Denis Morissette!  La photo a été prise à Miguasha, en Gaspésie, lors d'un atterrissage par bon vent de travers et fort vent rabattant en finale.
  • Calendrier des activités
  • sujets récents au forum...
  • Les nouvelles en bref...

Connexion


J'ai oublié mon mot de passe
Renvoyer l'e-mail de confirmation
 

Publicité

Vous aimeriez afficher une publicité pour joindre la communauté des pilotes professionnels et privé du Québec?  Cliquez ici pour en savoir plus!

Conditions actuelles

Click for Quebec, Quebec Forecast

METAR - Québec


2015/05/27 15:00
CYQB 271500Z 06007KT 15SM FEW006 FEW046 SCT061 SCT220 18/15 A2996 RMK SF1SC1SC1CI1 CI TR TCU ASOCTD SW SLP147 DENSITY ALT 600FT

TAF - Québec


2015/05/27 13:24
TAF TAF
AMD CYQB 271317Z 2713/2812 07006KT 11/2SM -SHRA BR BKN002 OVC050
TEMPO 2713/2715 6SM BR SCT002 BKN050
FM271500 22010KT P6SM SCT050 BKN120
FM271600 23015G25KT P6SM -SHRA BKN030 OVC080 PROB40 2716/2721 VRB20G40KT 11/2SM +TSRA BR BKN015 OVC030CB
FM272200 23012G22KT P6SM BKN040
BECMG 2800/2802 24010KT
FM281000 23012KT P6SM -SHRA BKN030 OVC080
RMK NXT FCST BY 271800Z